createdAt,value
2018-07-09T00:01:33.938Z,28.87
2018-07-09T00:04:06.030Z,29.93
2018-07-09T00:06:38.011Z,29.13
2018-07-09T00:09:09.735Z,30.17
2018-07-09T00:11:41.620Z,31.63
2018-07-09T00:14:13.686Z,32.00
2018-07-09T00:16:45.439Z,28.67
2018-07-09T00:19:19.231Z,28.47
2018-07-09T00:21:51.094Z,28.63
2018-07-09T00:24:23.326Z,31.73
2018-07-09T00:26:55.102Z,29.80
2018-07-09T00:29:27.334Z,30.23
2018-07-09T00:31:59.319Z,31.43
2018-07-09T00:34:31.644Z,29.00
2018-07-09T00:37:03.614Z,30.93
2018-07-09T00:39:35.830Z,27.90
2018-07-09T00:42:08.342Z,30.30
2018-07-09T00:44:40.530Z,29.37
2018-07-09T00:47:12.817Z,31.43
2018-07-09T00:49:45.241Z,28.80
2018-07-09T00:52:17.011Z,29.10
2018-07-09T00:54:49.051Z,29.90
2018-07-09T00:57:20.049Z,29.17
2018-07-09T00:59:52.999Z,29.53
2018-07-09T01:02:24.735Z,29.20
2018-07-09T01:04:55.965Z,28.53
2018-07-09T01:07:28.274Z,27.60
2018-07-09T01:10:00.253Z,30.20
2018-07-09T01:12:32.075Z,28.97
2018-07-09T01:15:04.281Z,27.57
2018-07-09T01:17:36.211Z,27.27
2018-07-09T01:20:09.903Z,29.30
2018-07-09T01:22:41.926Z,28.80
2018-07-09T01:25:14.480Z,27.03
2018-07-09T01:27:45.638Z,27.67
2018-07-09T01:30:17.797Z,27.37
2018-07-09T01:32:49.579Z,27.10
2018-07-09T01:35:21.762Z,28.67
2018-07-09T01:37:53.600Z,29.07
2018-07-09T01:40:25.711Z,25.47
2018-07-09T01:42:57.730Z,27.80
2018-07-09T01:45:29.735Z,29.80
2018-07-09T01:48:01.747Z,28.30
2018-07-09T01:50:33.508Z,28.77
2018-07-09T01:53:05.090Z,28.20
2018-07-09T01:55:37.497Z,26.20
2018-07-09T01:58:09.809Z,30.33
2018-07-09T02:00:41.788Z,28.07
2018-07-09T02:03:13.686Z,26.87
2018-07-09T02:05:45.837Z,28.50
2018-07-09T02:08:17.383Z,28.80
2018-07-09T02:10:49.207Z,28.37
2018-07-09T02:13:21.207Z,25.67
2018-07-09T02:15:53.766Z,29.10
2018-07-09T02:18:26.447Z,27.87
2018-07-09T02:20:59.012Z,28.23
2018-07-09T02:23:31.560Z,28.40
2018-07-09T02:26:05.770Z,27.23
2018-07-09T02:28:38.917Z,26.37
2018-07-09T02:31:12.584Z,28.53
2018-07-09T02:33:44.780Z,28.53
2018-07-09T02:36:17.693Z,28.27
2018-07-09T02:38:51.161Z,27.00
2018-07-09T02:41:23.553Z,28.60
2018-07-09T02:43:54.690Z,29.40
2018-07-09T02:46:28.868Z,28.03
2018-07-09T02:49:01.766Z,29.00
2018-07-09T02:51:33.526Z,28.13
2018-07-09T02:54:06.619Z,28.77
2018-07-09T02:56:39.813Z,29.07
2018-07-09T02:59:12.005Z,30.97
2018-07-09T03:01:47.559Z,30.07
2018-07-09T03:04:20.477Z,32.00
2018-07-09T03:06:54.080Z,29.40
2018-07-09T03:09:25.980Z,30.57
2018-07-09T03:12:00.000Z,29.80
2018-07-09T03:14:33.759Z,32.40
2018-07-09T03:17:05.698Z,33.27
2018-07-09T03:19:39.395Z,28.97
2018-07-09T03:22:12.874Z,28.10
2018-07-09T03:24:46.006Z,30.30
2018-07-09T03:27:18.561Z,28.80
2018-07-09T03:29:50.853Z,28.53
2018-07-09T03:32:24.146Z,30.73
2018-07-09T03:34:58.296Z,28.53
2018-07-09T03:37:31.599Z,30.50
2018-07-09T03:40:03.318Z,32.10
2018-07-09T03:42:35.906Z,29.80
2018-07-09T03:45:07.814Z,30.97
2018-07-09T03:47:38.990Z,31.10
2018-07-09T03:50:10.879Z,27.90
2018-07-09T03:52:42.854Z,30.60
2018-07-09T03:55:16.268Z,31.77
2018-07-09T03:57:49.726Z,30.80
2018-07-09T04:00:21.360Z,31.27
2018-07-09T04:02:57.225Z,32.13
2018-07-09T04:05:28.921Z,30.63
2018-07-09T04:08:02.190Z,30.10
2018-07-09T04:10:34.479Z,31.47
2018-07-09T04:13:06.717Z,26.83
2018-07-09T04:15:41.672Z,27.90
2018-07-09T04:18:15.403Z,28.03
2018-07-09T04:20:47.616Z,27.40
2018-07-09T04:23:22.689Z,27.70
2018-07-09T04:25:55.780Z,29.73
2018-07-09T04:28:29.109Z,27.70
2018-07-09T04:31:01.662Z,27.67
2018-07-09T04:33:34.254Z,27.50
2018-07-09T04:36:11.603Z,26.57
2018-07-09T04:38:46.245Z,27.60
2018-07-09T04:41:18.025Z,27.10
2018-07-09T04:43:51.181Z,30.93
2018-07-09T04:46:22.902Z,27.97
2018-07-09T04:48:55.819Z,29.00
2018-07-09T04:51:27.186Z,30.90
2018-07-09T04:54:01.538Z,26.77
2018-07-09T04:56:33.565Z,26.43
2018-07-09T04:59:05.933Z,26.60
2018-07-09T05:01:39.979Z,25.70
2018-07-09T05:04:15.433Z,25.53
2018-07-09T05:06:47.882Z,28.00
2018-07-09T05:09:20.531Z,25.30
2018-07-09T05:11:54.049Z,25.17
2018-07-09T05:14:28.475Z,25.95
2018-07-09T05:17:03.204Z,24.52
2018-07-09T05:19:36.609Z,25.25
2018-07-09T05:22:08.822Z,23.20
2018-07-09T05:24:42.596Z,23.40
2018-07-09T05:27:18.011Z,22.55
2018-07-09T05:29:50.389Z,23.18
2018-07-09T05:32:22.004Z,24.50
2018-07-09T05:34:55.238Z,24.90
2018-07-09T05:37:30.745Z,22.65
2018-07-09T05:40:05.788Z,24.67
2018-07-09T05:42:39.569Z,21.77
2018-07-09T05:45:13.201Z,24.85
2018-07-09T05:47:47.359Z,21.48
2018-07-09T05:50:20.265Z,21.60
2018-07-09T05:52:52.224Z,21.85
2018-07-09T05:55:24.454Z,23.62
2018-07-09T05:57:56.524Z,19.98
2018-07-09T06:00:29.806Z,21.20
2018-07-09T06:03:01.760Z,20.43
2018-07-09T06:05:36.080Z,20.05
2018-07-09T06:08:09.483Z,23.18
2018-07-09T06:10:42.947Z,22.93
2018-07-09T06:13:14.735Z,23.92
2018-07-09T06:15:47.411Z,22.80
2018-07-09T06:18:20.485Z,24.18
2018-07-09T06:20:54.115Z,28.25
2018-07-09T06:23:25.891Z,26.55
2018-07-09T06:26:00.135Z,21.75
2018-07-09T06:28:33.795Z,19.42
2018-07-09T06:31:07.183Z,20.68
2018-07-09T06:33:39.423Z,19.77
2018-07-09T06:36:11.278Z,19.92
2018-07-09T06:38:43.537Z,21.12
2018-07-09T06:41:19.540Z,20.82
2018-07-09T06:43:51.848Z,20.10
2018-07-09T06:46:26.416Z,19.75
2018-07-09T06:49:00.702Z,20.90
2018-07-09T06:51:33.915Z,22.48
2018-07-09T06:54:05.731Z,21.10
2018-07-09T06:56:39.559Z,21.12
2018-07-09T06:59:13.596Z,18.87
2018-07-09T07:01:47.442Z,19.65
2018-07-09T07:04:19.548Z,19.77
2018-07-09T07:06:51.920Z,21.90
2018-07-09T07:09:26.066Z,21.15
2018-07-09T07:11:57.089Z,21.40
2018-07-09T07:14:31.959Z,22.52
2018-07-09T07:17:05.720Z,22.62
2018-07-09T07:19:38.807Z,21.02
2018-07-09T07:22:11.536Z,22.52
2018-07-09T07:24:43.869Z,21.00
2018-07-09T07:27:18.741Z,22.95
2018-07-09T07:29:50.487Z,22.87
2018-07-09T07:32:21.527Z,25.05
2018-07-09T07:34:52.520Z,22.32
2018-07-09T07:37:25.998Z,22.50
2018-07-09T07:39:58.113Z,22.35
2018-07-09T07:42:33.514Z,23.47
2018-07-09T07:45:07.883Z,24.32
2018-07-09T07:47:43.607Z,23.35
2018-07-09T07:50:15.542Z,21.42
2018-07-09T07:52:47.547Z,23.30
2018-07-09T07:55:19.358Z,23.70
2018-07-09T07:57:51.999Z,22.48
2018-07-09T08:00:23.920Z,24.02
2018-07-09T08:02:56.004Z,25.15
2018-07-09T08:05:27.861Z,22.60
2018-07-09T08:07:59.640Z,24.80
2018-07-09T08:10:31.384Z,22.77
2018-07-09T08:13:27.171Z,23.15
2018-07-09T08:15:34.098Z,25.30
2018-07-09T08:18:06.179Z,24.15
2018-07-09T08:20:38.115Z,23.98
2018-07-09T08:23:10.540Z,24.90
2018-07-09T08:25:42.497Z,25.48
2018-07-09T08:28:16.406Z,24.27
2018-07-09T08:30:48.070Z,23.40
2018-07-09T08:33:20.047Z,24.57
2018-07-09T08:35:52.094Z,25.88
2018-07-09T08:38:24.062Z,24.23
2018-07-09T08:40:55.823Z,24.60
2018-07-09T08:43:27.164Z,24.80
2018-07-09T08:45:58.290Z,26.33
2018-07-09T08:48:30.398Z,26.42
2018-07-09T08:51:02.144Z,25.20
2018-07-09T08:53:34.195Z,26.60
2018-07-09T08:56:06.000Z,25.17
2018-07-09T08:58:38.278Z,24.90
2018-07-09T09:01:09.407Z,25.20
2018-07-09T09:03:41.390Z,24.90
2018-07-09T09:06:13.250Z,25.90
2018-07-09T09:08:45.303Z,24.75
2018-07-09T09:11:17.119Z,24.72
2018-07-09T09:13:49.413Z,25.17
2018-07-09T09:16:21.290Z,25.10
2018-07-09T09:18:54.776Z,26.80
2018-07-09T09:21:26.766Z,26.95
2018-07-09T09:23:58.940Z,27.15
2018-07-09T09:26:30.966Z,25.57
2018-07-09T09:29:04.590Z,25.40
2018-07-09T09:31:36.741Z,24.98
2018-07-09T09:34:08.847Z,23.80
2018-07-09T09:36:40.813Z,26.73
2018-07-09T09:39:12.711Z,25.43
2018-07-09T09:41:44.819Z,26.33
2018-07-09T09:44:17.062Z,26.90
2018-07-09T09:46:48.159Z,25.65
2018-07-09T09:49:19.077Z,25.92
2018-07-09T09:51:50.930Z,24.35
2018-07-09T09:54:23.147Z,25.88
2018-07-09T09:56:55.540Z,25.50
2018-07-09T09:59:27.769Z,26.02
2018-07-09T10:01:59.472Z,26.87
2018-07-09T10:04:32.430Z,25.52
2018-07-09T10:07:04.626Z,25.93
2018-07-09T10:09:36.827Z,24.23
2018-07-09T10:12:09.579Z,26.50
2018-07-09T10:14:41.707Z,27.30
2018-07-09T10:17:13.530Z,26.25
2018-07-09T10:19:44.798Z,26.55
2018-07-09T10:22:16.629Z,25.53
2018-07-09T10:24:48.560Z,26.50
2018-07-09T10:27:20.439Z,25.50
2018-07-09T10:29:54.244Z,26.93
2018-07-09T10:32:26.254Z,26.50
2018-07-09T10:34:58.407Z,25.65
2018-07-09T10:37:30.618Z,25.93
2018-07-09T10:40:03.268Z,25.23
2018-07-09T10:42:35.223Z,28.37
2018-07-09T10:45:07.426Z,27.50
2018-07-09T10:47:39.599Z,25.27
2018-07-09T10:50:11.519Z,25.88
2018-07-09T10:52:43.512Z,27.20
2018-07-09T10:55:15.850Z,25.73
2018-07-09T10:57:47.602Z,27.60
2018-07-09T11:00:19.771Z,27.33
2018-07-09T11:02:51.430Z,27.00
2018-07-09T11:05:23.699Z,25.63
2018-07-09T11:07:55.579Z,26.80
2018-07-09T11:10:27.779Z,27.23
2018-07-09T11:12:59.737Z,26.87
2018-07-09T11:15:32.198Z,27.20
2018-07-09T11:18:04.051Z,28.13
2018-07-09T11:20:36.349Z,25.63
2018-07-09T11:23:08.266Z,26.90
2018-07-09T11:25:40.414Z,27.17
2018-07-09T11:28:12.297Z,27.30
2018-07-09T11:30:45.498Z,27.90
2018-07-09T11:33:17.240Z,26.60
2018-07-09T11:35:49.299Z,28.37
2018-07-09T11:38:21.317Z,28.50
2018-07-09T11:40:53.834Z,26.80
2018-07-09T11:43:25.662Z,27.60
2018-07-09T11:45:56.630Z,26.67
2018-07-09T11:48:27.405Z,26.50
2018-07-09T11:50:59.182Z,26.80
2018-07-09T11:53:31.038Z,27.33
2018-07-09T11:56:02.984Z,27.60
2018-07-09T11:58:35.114Z,28.00
2018-07-09T12:01:07.234Z,27.87
2018-07-09T12:03:39.410Z,27.17
2018-07-09T12:06:11.835Z,28.20
2018-07-09T12:08:42.885Z,28.53
2018-07-09T12:11:15.294Z,29.77
2018-07-09T12:13:47.139Z,26.93
2018-07-09T12:16:19.065Z,28.97
2018-07-09T12:18:51.174Z,27.27
2018-07-09T12:21:22.780Z,28.73
2018-07-09T12:23:54.393Z,29.80
2018-07-09T12:26:26.579Z,28.20
2018-07-09T12:28:58.467Z,27.60
2018-07-09T12:31:31.667Z,29.23
2018-07-09T12:34:03.718Z,28.70
2018-07-09T12:36:36.059Z,29.20
2018-07-09T12:39:11.417Z,28.33
2018-07-09T12:41:43.691Z,29.43
2018-07-09T12:44:15.400Z,30.03
2018-07-09T12:46:46.519Z,29.33
2018-07-09T12:49:18.402Z,29.07
2018-07-09T12:51:50.523Z,29.93
2018-07-09T12:54:22.523Z,28.03
2018-07-09T12:56:54.511Z,30.43
2018-07-09T12:59:26.318Z,30.77
2018-07-09T13:01:59.661Z,30.60
2018-07-09T13:04:31.684Z,30.27
2018-07-09T13:07:03.828Z,29.00
2018-07-09T13:09:35.706Z,30.57
2018-07-09T13:12:09.262Z,29.40
2018-07-09T13:14:41.547Z,29.47
2018-07-09T13:17:13.780Z,29.40
2018-07-09T13:19:45.818Z,28.67
2018-07-09T13:22:17.827Z,28.40
2018-07-09T13:24:49.719Z,32.40
2018-07-09T13:27:21.990Z,30.03
2018-07-09T13:29:53.945Z,31.97
2018-07-09T13:32:26.645Z,29.53
2018-07-09T13:34:58.390Z,28.83
2018-07-09T13:37:30.266Z,31.70
2018-07-09T13:40:02.252Z,30.23
2018-07-09T13:42:34.187Z,31.97
2018-07-09T13:45:06.651Z,31.47
2018-07-09T13:47:38.634Z,30.77
2018-07-09T13:50:10.256Z,31.10
2018-07-09T13:52:42.575Z,32.60
2018-07-09T13:55:14.728Z,32.37
2018-07-09T13:57:46.707Z,32.33
2018-07-09T14:00:18.598Z,30.50
2018-07-09T14:02:50.405Z,33.00
2018-07-09T14:05:22.071Z,30.77
2018-07-09T14:07:54.186Z,31.73
2018-07-09T14:10:26.122Z,30.23
2018-07-09T14:12:57.773Z,33.27
2018-07-09T14:15:28.867Z,32.93
2018-07-09T14:18:00.815Z,34.30
2018-07-09T14:20:34.689Z,34.40
2018-07-09T14:23:07.611Z,34.40
2018-07-09T14:25:39.438Z,32.93
2018-07-09T14:28:11.384Z,33.73
2018-07-09T14:30:43.265Z,34.23
2018-07-09T14:33:15.737Z,36.30
2018-07-09T14:35:47.563Z,34.70
2018-07-09T14:38:19.614Z,35.83
2018-07-09T14:40:51.370Z,34.30
2018-07-09T14:43:23.363Z,34.53
2018-07-09T14:45:55.254Z,34.87
2018-07-09T14:48:27.262Z,35.73
2018-07-09T14:50:59.276Z,35.23
2018-07-09T14:53:31.162Z,36.40
2018-07-09T14:56:02.824Z,34.20
2018-07-09T14:58:33.812Z,36.97
2018-07-09T15:01:05.518Z,36.23
2018-07-09T15:03:37.647Z,35.43
2018-07-09T15:06:09.350Z,35.40
2018-07-09T15:08:42.321Z,34.90
2018-07-09T15:11:14.005Z,34.80
2018-07-09T15:13:46.046Z,32.97
2018-07-09T15:16:17.814Z,37.17
2018-07-09T15:18:49.548Z,36.80
2018-07-09T15:21:20.534Z,34.50
2018-07-09T15:23:52.584Z,36.57
2018-07-09T15:26:24.518Z,33.70
2018-07-09T15:28:55.644Z,34.97
2018-07-09T15:31:27.430Z,34.80
2018-07-09T15:34:00.530Z,35.27
2018-07-09T15:36:32.357Z,33.77
2018-07-09T15:39:04.939Z,32.23
2018-07-09T15:41:36.823Z,33.70
2018-07-09T15:44:08.482Z,34.20
2018-07-09T15:46:40.108Z,30.83
2018-07-09T15:49:12.186Z,33.00
2018-07-09T15:51:43.949Z,29.27
2018-07-09T15:54:15.806Z,29.83
2018-07-09T15:56:47.414Z,29.80
2018-07-09T15:59:19.495Z,28.10
2018-07-09T16:01:51.363Z,30.67
2018-07-09T16:04:23.293Z,29.07
2018-07-09T16:06:55.291Z,28.77
2018-07-09T16:09:27.567Z,30.33
2018-07-09T16:11:59.527Z,28.53
2018-07-09T16:14:31.669Z,30.50
2018-07-09T16:17:03.142Z,31.90
2018-07-09T16:19:35.378Z,28.43
2018-07-09T16:22:07.153Z,30.43
2018-07-09T16:24:39.219Z,31.40
2018-07-09T16:27:10.971Z,29.80
2018-07-09T16:29:43.007Z,31.63
2018-07-09T16:32:14.939Z,31.63
2018-07-09T16:34:48.045Z,30.00
2018-07-09T16:37:20.420Z,34.10
2018-07-09T16:39:52.650Z,33.23
2018-07-09T16:42:23.966Z,32.00
2018-07-09T16:44:55.984Z,31.90
2018-07-09T16:47:27.638Z,35.57
2018-07-09T16:50:00.017Z,32.73
2018-07-09T16:52:31.763Z,33.30
2018-07-09T16:55:03.608Z,33.97
2018-07-09T16:57:35.221Z,35.07
2018-07-09T17:00:07.576Z,33.77
2018-07-09T17:02:39.157Z,33.73
2018-07-09T17:05:11.010Z,34.70
2018-07-09T17:07:42.948Z,34.90
2018-07-09T17:10:14.779Z,37.57
2018-07-09T17:12:46.319Z,33.90
2018-07-09T17:15:18.282Z,38.03
2018-07-09T17:17:48.939Z,35.83
2018-07-09T17:20:21.071Z,36.40
2018-07-09T17:22:52.726Z,35.80
2018-07-09T17:25:25.231Z,38.43
2018-07-09T17:27:56.835Z,39.13
2018-07-09T17:30:29.416Z,37.00
2018-07-09T17:33:01.306Z,38.07
2018-07-09T17:35:34.250Z,39.00
2018-07-09T17:38:06.207Z,40.90
2018-07-09T17:40:37.951Z,38.90
2018-07-09T17:43:09.587Z,40.60
2018-07-09T17:45:41.723Z,39.77
2018-07-09T17:48:13.611Z,42.20
2018-07-09T17:50:45.347Z,38.87
2018-07-09T17:53:16.892Z,39.90
2018-07-09T17:55:48.914Z,42.07
2018-07-09T17:58:20.850Z,42.27
2018-07-09T18:00:52.747Z,41.90
2018-07-09T18:03:24.486Z,42.87
2018-07-09T18:05:56.130Z,43.77
2018-07-09T18:08:28.603Z,40.77
2018-07-09T18:11:00.517Z,39.37
2018-07-09T18:13:32.309Z,40.23
2018-07-09T18:16:04.266Z,42.20
2018-07-09T18:18:35.839Z,38.97
2018-07-09T18:21:07.994Z,37.90
2018-07-09T18:23:39.854Z,44.37
2018-07-09T18:26:11.958Z,40.67
2018-07-09T18:28:43.444Z,40.73
2018-07-09T18:31:15.303Z,40.47
2018-07-09T18:33:47.051Z,36.90
2018-07-09T18:36:19.167Z,38.00
2018-07-09T18:38:51.021Z,41.47
2018-07-09T18:41:22.021Z,38.50
2018-07-09T18:43:52.995Z,39.60
2018-07-09T18:46:24.063Z,39.63
2018-07-09T18:48:55.488Z,39.10
2018-07-09T18:51:27.408Z,39.80
2018-07-09T18:53:59.264Z,38.03
2018-07-09T18:56:31.490Z,41.60
2018-07-09T18:59:03.362Z,40.30
2018-07-09T19:01:35.490Z,42.37
2018-07-09T19:04:06.470Z,38.77
2018-07-09T19:06:50.575Z,38.80
2018-07-09T19:09:24.343Z,38.50
2018-07-09T19:11:55.487Z,39.93
2018-07-09T19:14:27.290Z,39.63
2018-07-09T19:18:16.044Z,42.87
2018-07-09T19:21:30.761Z,40.53
2018-07-09T19:24:00.850Z,40.17
2018-07-09T19:26:30.217Z,40.47
2018-07-09T19:29:02.079Z,39.17
2018-07-09T19:31:31.199Z,41.10
2018-07-09T19:34:00.711Z,39.00
2018-07-09T19:36:30.313Z,42.57
2018-07-09T19:38:59.730Z,40.90
2018-07-09T19:41:28.718Z,41.03
2018-07-09T19:43:58.167Z,40.20
2018-07-09T19:46:27.484Z,40.83
2018-07-09T19:48:57.666Z,42.30
2018-07-09T19:51:27.027Z,41.47
2018-07-09T19:53:56.451Z,38.70
2018-07-09T19:56:25.950Z,41.20
2018-07-09T19:58:55.409Z,40.30
2018-07-09T20:01:24.616Z,39.67
2018-07-09T20:03:54.169Z,38.50
2018-07-09T20:06:23.459Z,41.30
2018-07-09T20:08:57.966Z,42.60
2018-07-09T20:11:33.435Z,39.20
2018-07-09T20:15:07.316Z,42.73
2018-07-09T20:17:37.795Z,42.50
2018-07-09T20:20:07.358Z,43.47
2018-07-09T20:22:36.764Z,45.13
2018-07-09T20:25:06.303Z,44.77
2018-07-09T20:27:35.453Z,45.40
2018-07-09T20:30:05.294Z,45.70
2018-07-09T20:32:34.573Z,46.80
2018-07-09T20:35:03.815Z,45.47
2018-07-09T20:37:33.142Z,47.50
2018-07-09T20:40:02.369Z,49.63
2018-07-09T20:42:31.992Z,50.33
2018-07-09T20:45:01.455Z,51.40
2018-07-09T20:47:30.574Z,52.10
2018-07-09T20:49:59.927Z,51.00
2018-07-09T20:52:29.633Z,54.37
2018-07-09T20:54:58.805Z,51.50
2018-07-09T20:57:28.107Z,54.47
2018-07-09T20:59:57.770Z,55.73
2018-07-09T21:02:26.950Z,55.57
2018-07-09T21:04:56.442Z,53.07
2018-07-09T21:07:26.086Z,53.33
2018-07-09T21:09:55.278Z,49.30
2018-07-09T21:12:25.836Z,51.73
2018-07-09T21:14:55.424Z,52.57
2018-07-09T21:17:25.219Z,49.53
2018-07-09T21:19:54.782Z,49.37
2018-07-09T21:22:24.189Z,46.90
2018-07-09T21:24:53.639Z,47.77
2018-07-09T21:27:23.071Z,44.67
2018-07-09T21:29:52.922Z,44.67
2018-07-09T21:32:22.227Z,40.43
2018-07-09T21:34:51.430Z,41.40
2018-07-09T21:37:20.790Z,43.97
2018-07-09T21:39:49.842Z,47.07
2018-07-09T21:42:19.223Z,49.33
2018-07-09T21:44:48.546Z,44.87
2018-07-09T21:47:17.825Z,44.20
2018-07-09T21:49:47.400Z,41.43
2018-07-09T21:52:16.566Z,41.63
2018-07-09T21:54:45.550Z,43.17
2018-07-09T21:57:15.022Z,42.43
2018-07-09T21:59:44.339Z,41.80
2018-07-09T22:02:13.644Z,40.57
2018-07-09T22:04:43.099Z,40.90
2018-07-09T22:07:12.179Z,39.83
2018-07-09T22:09:41.166Z,41.00
2018-07-09T22:12:10.412Z,40.40
2018-07-09T22:14:40.919Z,41.03
2018-07-09T22:17:10.000Z,40.40
2018-07-09T22:19:39.874Z,39.43
2018-07-09T22:22:09.102Z,39.27
2018-07-09T22:24:38.279Z,37.90
2018-07-09T22:27:08.403Z,39.43
2018-07-09T22:29:37.697Z,40.13
2018-07-09T22:32:09.518Z,40.30
2018-07-09T22:34:41.118Z,40.70
2018-07-09T22:37:13.183Z,39.57
2018-07-09T22:39:44.662Z,37.37
2018-07-09T22:42:16.469Z,38.90
2018-07-09T22:44:47.951Z,39.13
2018-07-09T22:47:19.710Z,40.43
2018-07-09T22:49:50.490Z,39.07
2018-07-09T22:52:22.666Z,39.60
2018-07-09T22:55:04.256Z,40.00
2018-07-09T22:57:36.423Z,37.80
2018-07-09T23:00:07.125Z,38.03
2018-07-09T23:02:38.993Z,40.87
2018-07-09T23:05:11.030Z,38.77
2018-07-09T23:07:43.311Z,39.80
2018-07-09T23:11:28.475Z,39.33
2018-07-09T23:16:47.588Z,41.50
2018-07-09T23:19:29.958Z,39.17
2018-07-09T23:22:06.005Z,40.57
2018-07-09T23:24:35.122Z,41.37
2018-07-09T23:27:04.475Z,41.10
2018-07-09T23:29:33.971Z,39.10
2018-07-09T23:32:03.455Z,40.40
2018-07-09T23:34:32.880Z,39.90
2018-07-09T23:37:03.014Z,39.50
2018-07-09T23:39:32.316Z,40.10
2018-07-09T23:42:01.641Z,38.80
2018-07-09T23:44:31.637Z,38.10
2018-07-09T23:47:00.952Z,38.97
2018-07-09T23:49:30.531Z,35.73
2018-07-09T23:52:00.291Z,38.43
2018-07-09T23:54:29.818Z,37.03
2018-07-09T23:59:28.121Z,38.47
